Time;durP1;ratioP1;P1;durP2;ratioP2;P2;SDS_P1;SDS_P2;PMS_P1;PMS_P2;Temp;Humidity;BMP_temperature;BMP_pressure;BME280_temperature;BME280_humidity;BME280_pressure;Samples;Min_cycle;Max_cycle;Signal;HPM_P1;HPM_P2
2022/08/20 00:02:15;;;;;;;20.20;10.30;;;;;;;22.42;51.44;98546.58;105858;1277;97902;-72
2022/08/20 00:04:44;;;;;;;21.90;9.40;;;;;;;22.36;51.52;98549.66;105805;1277;111453;-72
2022/08/20 00:07:14;;;;;;;20.20;9.50;;;;;;;22.31;51.61;98553.22;105783;1277;97898;-71
2022/08/20 00:09:45;;;;;;;19.70;10.60;;;;;;;22.27;51.51;98550.02;105819;1278;107880;-72
2022/08/20 00:12:16;;;;;;;21.40;9.80;;;;;;;22.21;51.66;98553.74;105847;1277;95897;-73
2022/08/20 00:14:45;;;;;;;21.40;9.90;;;;;;;22.14;51.80;98560.09;105723;1277;96170;-72
2022/08/20 00:17:13;;;;;;;17.10;8.90;;;;;;;22.07;51.95;98564.58;105880;1277;111355;-73
2022/08/20 00:19:41;;;;;;;23.70;9.50;;;;;;;22.02;52.27;98571.00;105851;1277;98012;-70
2022/08/20 00:22:08;;;;;;;26.30;10.10;;;;;;;21.98;52.24;98572.82;105829;1277;107770;-72
2022/08/20 00:24:36;;;;;;;18.70;9.10;;;;;;;21.94;52.43;98574.16;105861;1278;98006;-71
2022/08/20 00:27:04;;;;;;;17.10;8.90;;;;;;;21.91;52.36;98575.27;105873;1277;97950;-74
2022/08/20 00:29:32;;;;;;;24.90;10.60;;;;;;;21.85;52.46;98573.67;105831;1277;111421;-70
2022/08/20 00:32:00;;;;;;;20.40;10.40;;;;;;;21.81;52.48;98570.86;105878;1277;95335;-72
2022/08/20 00:34:29;;;;;;;20.80;10.00;;;;;;;21.79;52.79;98574.84;105848;1277;107762;-72
2022/08/20 00:36:57;;;;;;;19.30;9.80;;;;;;;21.73;52.77;98574.80;105928;1277;98014;-71
2022/08/20 00:39:26;;;;;;;20.20;10.30;;;;;;;21.69;53.04;98575.89;105953;1277;97948;-73
2022/08/20 00:41:54;;;;;;;22.90;9.90;;;;;;;21.65;52.98;98578.77;105848;1278;111496;-73
2022/08/20 00:44:22;;;;;;;20.60;10.10;;;;;;;21.60;52.94;98579.13;106003;1276;97896;-72
2022/08/20 00:46:52;;;;;;;21.70;10.20;;;;;;;21.56;53.03;98584.91;106011;1277;107762;-73
2022/08/20 00:49:25;;;;;;;21.10;10.30;;;;;;;21.52;53.09;98584.13;105947;1277;98328;-72
2022/08/20 00:52:11;;;;;;;22.40;9.40;;;;;;;21.48;53.32;98579.60;106135;1277;97964;-72
2022/08/20 00:54:49;;;;;;;19.80;9.90;;;;;;;21.42;53.37;98572.27;105928;1277;111197;-73
2022/08/20 00:57:25;;;;;;;19.50;10.20;;;;;;;21.36;53.41;98568.06;105930;1277;97774;-73
2022/08/20 01:00:14;;;;;;;;;;;;;;;21.32;53.71;98567.85;105819;1277;107767;-73
2022/08/20 01:02:45;;;;;;;20.30;9.70;;;;;;;21.27;53.66;98565.63;105887;1277;97886;-75
2022/08/20 01:05:17;;;;;;;20.50;10.30;;;;;;;21.24;53.63;98559.45;106039;1277;95961;-73
2022/08/20 01:07:47;;;;;;;19.40;10.50;;;;;;;21.22;53.78;98547.31;105890;1277;110874;-74
2022/08/20 01:10:28;;;;;;;23.60;10.80;;;;;;;21.20;53.78;98539.06;105872;1277;97752;-71
2022/08/20 01:13:02;;;;;;;21.70;10.50;;;;;;;21.18;54.01;98534.85;105967;1276;107923;-72
2022/08/20 01:15:30;;;;;;;20.70;10.10;;;;;;;21.14;53.93;98532.98;105813;1278;96916;-74
2022/08/20 01:18:01;;;;;;;20.40;10.30;;;;;;;21.10;54.07;98532.98;105828;1277;97901;-72
2022/08/20 01:20:53;;;;;;;20.20;9.80;;;;;;;21.06;54.18;98537.43;105920;1276;115446;-72
2022/08/20 01:23:31;;;;;;;24.30;11.50;;;;;;;21.00;54.34;98539.98;105915;1278;97908;-72
2022/08/20 01:26:09;;;;;;;20.10;10.00;;;;;;;20.96;54.51;98536.96;105839;1277;107766;-72
2022/08/20 01:28:42;;;;;;;21.80;9.70;;;;;;;20.92;54.55;98536.34;105819;1277;98494;-71
2022/08/20 01:31:15;;;;;;;22.30;10.10;;;;;;;20.91;54.57;98531.91;105866;1277;97975;-73
2022/08/20 01:33:48;;;;;;;19.90;10.00;;;;;;;20.88;54.74;98529.05;105852;1277;111420;-73
2022/08/20 01:36:21;;;;;;;17.90;9.50;;;;;;;20.84;54.69;98530.17;105927;1276;97765;-73
2022/08/20 01:38:50;;;;;;;22.00;10.60;;;;;;;20.81;54.67;98527.89;105849;1277;107801;-72
2022/08/20 01:41:31;;;;;;;18.90;10.90;;;;;;;20.75;54.86;98524.08;105859;1277;95279;-70
2022/08/20 01:44:00;;;;;;;20.70;10.00;;;;;;;20.68;54.98;98521.11;105939;1277;97893;-72
2022/08/20 01:46:36;;;;;;;23.90;9.70;;;;;;;20.61;54.99;98520.88;105998;1276;111439;-72
2022/08/20 01:49:34;;;;;;;20.40;10.40;;;;;;;20.56;55.09;98527.43;105877;1277;97942;-72
2022/08/20 01:52:07;;;;;;;20.20;9.60;;;;;;;20.49;55.18;98532.96;105918;1276;108848;-71
2022/08/20 01:54:35;;;;;;;19.70;9.80;;;;;;;20.43;55.20;98538.77;105852;1277;97786;-71
2022/08/20 01:57:16;;;;;;;29.70;10.30;;;;;;;20.38;55.32;98538.00;105815;1277;97886;-71
2022/08/20 01:59:47;;;;;;;22.20;9.60;;;;;;;20.33;55.44;98533.34;105832;1277;111479;-73
2022/08/20 02:02:17;;;;;;;19.50;10.10;;;;;;;20.29;55.59;98529.00;105815;1277;97861;-73
2022/08/20 02:04:44;;;;;;;19.40;10.60;;;;;;;20.25;55.53;98527.25;105841;1277;108353;-72
2022/08/20 02:07:20;;;;;;;21.00;10.20;;;;;;;20.20;55.61;98531.05;105805;1277;97898;-71
2022/08/20 02:09:49;;;;;;;21.50;10.50;;;;;;;20.17;55.77;98537.65;105865;1277;95993;-72
2022/08/20 02:12:18;;;;;;;20.10;10.70;;;;;;;20.13;55.83;98541.52;105917;1278;111400;-72
2022/08/20 02:14:51;;;;;;;22.20;10.60;;;;;;;20.09;55.82;98542.52;105935;1277;97769;-72
2022/08/20 02:17:22;;;;;;;20.90;9.70;;;;;;;20.08;55.97;98543.59;105831;1277;107825;-73
2022/08/20 02:19:58;;;;;;;22.70;10.30;;;;;;;20.05;56.04;98543.34;105813;1277;97698;-71
2022/08/20 02:22:46;;;;;;;21.10;10.70;;;;;;;20.03;56.19;98552.45;105800;1277;97974;-71
2022/08/20 02:25:19;;;;;;;21.40;11.10;;;;;;;19.99;56.24;98555.59;105796;1277;112924;-70
2022/08/20 02:27:52;;;;;;;23.40;11.60;;;;;;;19.98;56.44;98559.88;105781;1277;96311;-73
2022/08/20 02:30:26;;;;;;;20.40;10.60;;;;;;;19.96;56.32;98565.19;105947;1277;107584;-70
2022/08/20 02:32:56;;;;;;;23.40;12.20;;;;;;;19.96;56.50;98565.42;105963;1277;95901;-71
2022/08/20 02:35:26;;;;;;;22.80;11.30;;;;;;;19.94;56.48;98562.16;105805;1277;97892;-72
2022/08/20 02:37:55;;;;;;;20.60;11.20;;;;;;;19.91;56.59;98568.05;105964;1277;111587;-69
2022/08/20 02:40:27;;;;;;;22.10;11.10;;;;;;;19.89;56.80;98564.50;105951;1278;97987;-70
2022/08/20 02:43:01;;;;;;;20.70;11.30;;;;;;;19.89;56.79;98567.54;105965;1277;107775;-72
2022/08/20 02:45:36;;;;;;;22.10;11.80;;;;;;;19.89;57.00;98563.29;105927;1277;98013;-73
2022/08/20 02:48:05;;;;;;;21.10;11.40;;;;;;;19.87;57.07;98565.09;105921;1277;97988;-73
2022/08/20 02:50:33;;;;;;;23.70;11.50;;;;;;;19.86;57.10;98555.36;105831;1277;111911;-72
2022/08/20 02:53:01;;;;;;;25.00;11.30;;;;;;;19.86;57.16;98552.00;105908;1276;98036;-71
2022/08/20 02:55:29;;;;;;;23.50;11.50;;;;;;;19.86;57.25;98547.30;106010;1276;107500;-72
2022/08/20 02:58:00;;;;;;;24.20;11.50;;;;;;;19.85;57.33;98539.58;105878;1277;98100;-72
2022/08/20 03:00:30;;;;;;;21.40;11.90;;;;;;;19.85;57.42;98534.39;105967;1277;95258;-71
2022/08/20 03:03:09;;;;;;;21.60;11.30;;;;;;;19.84;57.55;98532.20;105891;1277;111373;-71
2022/08/20 03:05:40;;;;;;;24.20;12.00;;;;;;;19.80;57.54;98533.36;105988;1277;97004;-72
2022/08/20 03:08:13;;;;;;;22.10;10.90;;;;;;;19.77;57.44;98538.16;105903;1277;107771;-73
2022/08/20 03:10:44;;;;;;;22.30;11.10;;;;;;;19.77;57.69;98541.31;105932;1277;97786;-73
2022/08/20 03:13:15;;;;;;;24.50;11.50;;;;;;;19.77;57.93;98537.84;105849;1277;97859;-73
2022/08/20 03:15:47;;;;;;;23.10;11.00;;;;;;;19.77;57.86;98548.09;105947;1277;111394;-73
2022/08/20 03:18:18;;;;;;;21.90;10.50;;;;;;;19.77;57.84;98541.48;105902;1277;98042;-73
2022/08/20 03:20:48;;;;;;;19.20;10.50;;;;;;;19.77;57.96;98542.73;105895;1277;107890;-72
2022/08/20 03:23:21;;;;;;;21.50;11.40;;;;;;;19.76;57.92;98536.91;105875;1277;97919;-72
2022/08/20 03:25:48;;;;;;;20.90;11.50;;;;;;;19.74;57.94;98532.36;105882;1278;97990;-71
2022/08/20 03:28:18;;;;;;;21.10;11.80;;;;;;;19.71;58.06;98529.20;105896;1277;111178;-72
2022/08/20 03:30:49;;;;;;;21.40;11.70;;;;;;;19.69;58.18;98528.55;105876;1277;97873;-73
2022/08/20 03:33:20;;;;;;;22.20;11.00;;;;;;;19.68;58.08;98533.96;105918;1277;107813;-73
2022/08/20 03:35:48;;;;;;;22.70;10.60;;;;;;;19.66;58.26;98533.77;106011;1276;98009;-73
2022/08/20 03:38:20;;;;;;;22.10;11.80;;;;;;;19.63;58.33;98529.45;105971;1276;97883;-72
2022/08/20 03:41:02;;;;;;;20.50;11.20;;;;;;;19.60;58.41;98526.54;105861;1277;110758;-71
2022/08/20 03:43:32;;;;;;;24.90;11.60;;;;;;;19.58;58.39;98527.50;105889;1277;97730;-71
2022/08/20 03:46:02;;;;;;;22.90;11.80;;;;;;;19.56;58.53;98537.77;105914;1276;107798;-72
2022/08/20 03:48:30;;;;;;;22.90;12.10;;;;;;;19.55;58.67;98541.36;105880;1277;98063;-72
2022/08/20 03:50:59;;;;;;;22.20;11.40;;;;;;;19.53;58.64;98543.81;104678;1277;1619103;-71
2022/08/20 03:53:32;;;;;;;22.80;12.20;;;;;;;19.50;58.70;98546.84;106023;1277;111613;-74
2022/08/20 03:56:04;;;;;;;22.60;12.40;;;;;;;19.46;58.70;98545.05;106006;1277;95248;-74
2022/08/20 03:58:34;;;;;;;26.50;12.10;;;;;;;19.44;58.98;98541.60;106023;1277;107820;-73
2022/08/20 04:01:05;;;;;;;22.50;11.40;;;;;;;19.41;58.93;98533.70;105930;1277;97955;-73
2022/08/20 04:03:35;;;;;;;20.10;11.70;;;;;;;19.39;58.94;98530.98;105973;1277;97894;-72
2022/08/20 04:06:04;;;;;;;24.50;12.10;;;;;;;19.38;59.14;98531.73;106030;1276;111470;-74
2022/08/20 04:08:32;;;;;;;24.10;13.80;;;;;;;19.37;59.17;98532.92;105891;1276;97937;-73
2022/08/20 04:11:00;;;;;;;25.40;12.60;;;;;;;19.36;59.23;98537.68;105869;1277;107861;-73
2022/08/20 04:13:30;;;;;;;25.60;13.00;;;;;;;19.36;59.35;98541.27;105866;1277;98009;-73
2022/08/20 04:16:08;;;;;;;27.20;13.40;;;;;;;19.34;59.36;98551.86;105974;1277;97913;-74
2022/08/20 04:18:42;;;;;;;27.30;12.60;;;;;;;19.33;59.49;98558.91;105990;1277;111454;-74
2022/08/20 04:21:34;;;;;;;23.00;12.90;;;;;;;19.34;59.74;98572.09;105960;1277;97836;-74
2022/08/20 04:24:04;;;;;;;;;;;;;;;19.36;59.68;98576.52;105898;1277;108603;-74
2022/08/20 04:26:36;;;;;;;22.30;11.80;;;;;;;19.35;59.88;98578.21;106035;1276;98676;-74
2022/08/20 04:29:04;;;;;;;23.50;12.80;;;;;;;19.38;59.88;98579.12;106013;1276;98317;-76
2022/08/20 04:31:33;;;;;;;23.10;12.40;;;;;;;19.40;59.84;98574.05;105945;1278;111403;-74
2022/08/20 04:34:06;;;;;;;21.30;12.40;;;;;;;19.43;59.93;98575.17;105914;1277;96147;-72
2022/08/20 04:36:35;;;;;;;22.20;12.30;;;;;;;19.44;59.98;98579.08;105867;1277;107810;-74
2022/08/20 04:39:03;;;;;;;22.30;11.60;;;;;;;19.47;60.12;98581.89;105893;1277;98422;-70
2022/08/20 04:41:31;;;;;;;21.90;12.80;;;;;;;19.49;60.16;98579.85;105834;1277;97864;-71
2022/08/20 04:43:59;;;;;;;26.70;12.20;;;;;;;19.51;60.21;98580.39;105932;1276;111180;-71
2022/08/20 04:46:31;;;;;;;24.40;12.30;;;;;;;19.51;60.20;98581.38;105984;1276;97954;-72
2022/08/20 04:49:02;;;;;;;22.90;11.50;;;;;;;19.54;60.34;98587.02;105936;1277;106615;-72
2022/08/20 04:51:33;;;;;;;23.40;11.30;;;;;;;19.58;60.54;98591.94;105964;1276;98064;-73
2022/08/20 04:54:04;;;;;;;21.50;11.70;;;;;;;19.61;60.55;98591.75;105991;1276;96337;-72
2022/08/20 04:56:38;;;;;;;25.30;12.00;;;;;;;19.65;60.50;98590.03;106017;1276;112857;-72
2022/08/20 04:59:07;;;;;;;20.60;11.40;;;;;;;19.68;60.68;98589.09;105958;1276;97834;-73
2022/08/20 05:01:35;;;;;;;24.00;11.70;;;;;;;19.73;60.68;98587.47;105985;1277;107483;-68
2022/08/20 05:04:04;;;;;;;22.60;12.80;;;;;;;19.76;60.70;98580.20;105959;1277;97994;-71
2022/08/20 05:06:34;;;;;;;24.00;13.30;;;;;;;19.81;60.82;98578.59;106025;1277;95506;-68
2022/08/20 05:09:03;;;;;;;23.90;13.00;;;;;;;19.85;60.96;98573.23;105960;1278;112074;-70
2022/08/20 05:11:34;;;;;;;22.50;13.60;;;;;;;19.90;60.91;98568.77;106034;1277;97961;-71
2022/08/20 05:14:10;;;;;;;21.80;13.30;;;;;;;19.94;60.88;98566.31;105823;1278;106694;-68
2022/08/20 05:16:39;;;;;;;;;;;;;;;19.98;61.17;98561.80;105925;1277;97967;-68
2022/08/20 05:19:11;;;;;;;22.80;12.90;;;;;;;20.02;61.22;98557.02;105919;1276;96659;-68
2022/08/20 05:21:40;;;;;;;22.00;12.50;;;;;;;20.14;61.38;98553.83;106003;1276;111461;-67
2022/08/20 05:24:10;;;;;;;24.90;12.80;;;;;;;20.22;61.25;98551.39;105923;1277;97880;-68
2022/08/20 05:26:40;;;;;;;23.70;12.00;;;;;;;20.28;61.34;98552.84;106033;1277;107595;-69
2022/08/20 05:29:09;;;;;;;23.00;11.30;;;;;;;20.34;61.32;98553.05;105939;1277;95360;-69
2022/08/20 05:31:38;;;;;;;22.70;12.00;;;;;;;20.40;61.38;98546.71;105863;1277;97988;-68
2022/08/20 05:34:11;;;;;;;23.50;10.10;;;;;;;20.47;61.56;98541.20;105880;1277;111027;-67
2022/08/20 05:36:48;;;;;;;27.50;10.60;;;;;;;20.53;61.42;98538.83;105919;1278;97936;-69
2022/08/20 05:39:19;;;;;;;28.70;11.60;;;;;;;20.59;61.57;98531.27;105870;1278;108677;-68
2022/08/20 05:41:49;;;;;;;19.30;9.70;;;;;;;20.65;61.60;98526.36;105890;1277;97900;-72
2022/08/20 05:44:19;;;;;;;19.80;9.50;;;;;;;20.72;61.64;98521.92;105990;1278;97965;-72
2022/08/20 05:46:47;;;;;;;23.80;10.90;;;;;;;20.79;61.61;98520.67;106056;1277;111937;-69
2022/08/20 05:49:21;;;;;;;20.50;9.40;;;;;;;20.86;61.60;98511.82;105968;1277;95658;-72
2022/08/20 05:51:52;;;;;;;22.00;10.30;;;;;;;20.91;61.75;98513.66;106000;1277;107830;-71
2022/08/20 05:54:22;;;;;;;19.60;9.30;;;;;;;20.97;61.71;98523.20;106029;1277;97981;-72
2022/08/20 05:56:51;;;;;;;22.80;9.50;;;;;;;21.03;61.80;98532.48;106059;1277;98003;-71
2022/08/20 05:59:21;;;;;;;28.40;9.80;;;;;;;21.10;61.72;98544.28;106016;1278;111525;-71
2022/08/20 06:01:51;;;;;;;21.90;9.30;;;;;;;21.17;61.78;98560.92;106068;1277;96284;-73
2022/08/20 06:04:23;;;;;;;18.30;9.10;;;;;;;21.23;61.91;98572.41;105993;1277;107920;-72
2022/08/20 06:07:03;;;;;;;23.60;9.80;;;;;;;21.30;62.06;98582.23;105996;1277;95640;-74
2022/08/20 06:09:33;;;;;;;21.30;8.90;;;;;;;21.36;61.84;98586.19;105981;1277;97984;-73
2022/08/20 06:12:07;;;;;;;22.30;10.20;;;;;;;21.41;62.14;98582.41;106055;1277;111576;-73
2022/08/20 06:14:35;;;;;;;24.90;10.80;;;;;;;21.49;62.09;98577.82;106044;1277;98062;-73
2022/08/20 06:17:08;;;;;;;19.90;9.60;;;;;;;21.56;62.07;98566.89;106006;1276;106711;-73
2022/08/20 06:19:40;;;;;;;24.30;9.90;;;;;;;21.64;62.01;98557.44;106024;1276;95263;-73
2022/08/20 06:22:14;;;;;;;24.00;9.30;;;;;;;21.71;62.20;98551.84;106023;1277;97960;-74
2022/08/20 06:24:55;;;;;;;25.00;10.10;;;;;;;21.79;62.19;98539.81;106015;1277;111166;-73
2022/08/20 06:27:23;;;;;;;20.00;9.70;;;;;;;21.84;61.95;98537.86;106067;1276;97962;-71
2022/08/20 06:29:52;;;;;;;19.10;9.30;;;;;;;21.90;61.95;98542.14;106064;1276;107892;-74
2022/08/20 06:32:23;;;;;;;22.10;9.00;;;;;;;21.97;61.94;98549.06;106043;1278;95230;-71
2022/08/20 06:35:04;;;;;;;26.40;10.90;;;;;;;22.05;62.13;98552.73;106004;1277;97968;-72
2022/08/20 06:37:37;;;;;;;19.70;8.70;;;;;;;22.13;61.97;98559.29;105956;1277;111389;-75
2022/08/20 06:40:16;;;;;;;20.30;9.00;;;;;;;22.22;62.08;98558.53;105954;1278;97056;-72
2022/08/20 06:42:45;;;;;;;22.30;8.40;;;;;;;22.29;62.05;98555.04;106019;1277;107588;-74
2022/08/20 06:45:24;;;;;;;20.10;8.60;;;;;;;22.37;62.18;98558.88;105971;1277;97983;-70
2022/08/20 06:47:58;;;;;;;20.10;9.30;;;;;;;22.46;62.12;98561.56;105972;1277;97966;-70
2022/08/20 06:50:38;;;;;;;19.30;8.30;;;;;;;22.55;62.53;98562.49;105995;1276;111351;-68
2022/08/20 06:53:19;;;;;;;19.70;7.80;;;;;;;22.66;62.24;98566.73;106002;1277;97956;-70
2022/08/20 06:55:52;;;;;;;22.20;8.60;;;;;;;22.76;62.56;98568.63;105895;1277;107836;-72
2022/08/20 06:58:20;;;;;;;;;;;;;;;22.87;62.39;98565.90;105897;1277;97891;-69
2022/08/20 07:01:09;;;;;;;20.80;7.90;;;;;;;22.98;62.46;98564.52;105884;1277;97883;-69
2022/08/20 07:03:41;;;;;;;16.70;7.90;;;;;;;23.11;62.32;98562.98;105858;1278;111381;-67
2022/08/20 07:06:25;;;;;;;15.40;7.70;;;;;;;23.25;62.29;98565.92;105855;1277;97906;-69
2022/08/20 07:08:55;;;;;;;19.50;8.10;;;;;;;23.38;62.31;98562.48;105870;1278;107833;-68
2022/08/20 07:11:25;;;;;;;23.20;8.60;;;;;;;23.52;62.30;98558.98;105847;1277;98004;-70
2022/08/20 07:13:58;;;;;;;27.80;9.20;;;;;;;23.61;62.25;98551.39;105946;1277;97909;-70
2022/08/20 07:16:29;;;;;;;18.60;7.70;;;;;;;23.76;62.42;98541.14;105999;1276;111053;-68
2022/08/20 07:18:58;;;;;;;20.80;7.80;;;;;;;24.22;62.04;98541.89;105896;1277;96273;-77
2022/08/20 07:21:26;;;;;;;21.80;8.60;;;;;;;25.34;61.15;98541.61;105881;1277;107860;-77
2022/08/20 07:23:54;;;;;;;24.20;8.30;;;;;;;26.40;60.90;98540.01;105888;1277;97892;-76
2022/08/20 07:26:22;;;;;;;20.30;7.70;;;;;;;27.44;60.84;98539.88;105958;1276;98080;-70
2022/08/20 07:28:50;;;;;;;20.30;8.00;;;;;;;28.44;60.75;98545.05;105994;1276;111421;-71
2022/08/20 07:34:11;;;;;;;17.90;6.60;;;;;;;30.59;60.08;98537.00;105874;1278;107595;-74
2022/08/20 07:36:39;;;;;;;22.80;7.00;;;;;;;31.51;59.81;98534.75;105949;1276;97969;-70
2022/08/20 07:39:08;;;;;;;19.00;6.10;;;;;;;32.39;59.66;98537.20;105906;1277;98011;-72
2022/08/20 07:41:35;;;;;;;22.20;5.90;;;;;;;33.27;59.48;98538.04;105856;1277;111186;-72
2022/08/20 07:44:03;;;;;;;21.00;7.10;;;;;;;34.12;58.96;98536.00;105882;1278;97971;-70
2022/08/20 07:46:32;;;;;;;13.00;6.10;;;;;;;34.86;58.42;98536.27;105895;1277;107714;-72
2022/08/20 07:49:00;;;;;;;15.50;5.80;;;;;;;35.58;58.32;98537.27;105891;1277;97891;-72
2022/08/20 07:51:28;;;;;;;18.60;6.40;;;;;;;36.24;57.69;98535.53;105917;1277;97900;-72
2022/08/20 07:53:57;;;;;;;19.20;6.10;;;;;;;36.74;57.13;98535.31;105996;1277;111418;-71
2022/08/20 07:56:25;;;;;;;16.90;5.60;;;;;;;37.31;56.74;98531.80;105945;1277;99083;-71
2022/08/20 07:58:58;;;;;;;17.00;5.90;;;;;;;37.72;55.85;98524.23;106017;1278;107793;-72
2022/08/20 08:01:30;;;;;;;17.50;6.10;;;;;;;38.14;55.12;98517.58;106008;1277;96601;-73
2022/08/20 08:04:01;;;;;;;14.60;5.40;;;;;;;38.48;54.93;98515.69;105894;1278;97974;-72
2022/08/20 08:06:31;;;;;;;17.10;5.80;;;;;;;38.87;54.23;98516.41;105893;1276;112515;-72
2022/08/20 08:09:11;;;;;;;16.90;5.50;;;;;;;39.31;53.79;98516.55;105907;1277;97799;-73
2022/08/20 08:11:48;;;;;;;18.20;5.70;;;;;;;39.70;52.97;98518.93;105898;1277;108853;-73
2022/08/20 08:14:25;;;;;;;13.30;5.10;;;;;;;40.01;52.11;98519.65;105925;1276;96901;-73
2022/08/20 08:16:57;;;;;;;16.30;5.20;;;;;;;40.29;51.53;98520.30;105913;1277;97874;-72
2022/08/20 08:19:33;;;;;;;15.30;5.50;;;;;;;40.54;51.08;98523.73;105931;1277;112162;-73
2022/08/20 08:22:03;;;;;;;16.00;5.20;;;;;;;40.85;50.24;98521.64;105899;1277;98488;-72
2022/08/20 08:24:31;;;;;;;14.40;4.80;;;;;;;41.00;49.51;98517.93;106010;1278;107766;-72
2022/08/20 08:27:00;;;;;;;16.40;5.40;;;;;;;41.11;49.13;98516.79;105885;1277;96986;-75
2022/08/20 08:29:28;;;;;;;13.50;5.60;;;;;;;41.19;48.44;98519.60;105943;1277;95236;-72
2022/08/20 08:31:56;;;;;;;15.60;5.00;;;;;;;41.33;47.83;98520.64;105899;1278;111406;-73
2022/08/20 08:34:25;;;;;;;13.50;5.20;;;;;;;41.51;47.21;98522.93;105914;1276;97755;-72
2022/08/20 08:36:53;;;;;;;17.20;5.10;;;;;;;41.68;46.57;98522.45;105945;1278;107825;-72
2022/08/20 08:39:25;;;;;;;12.70;5.70;;;;;;;41.58;45.90;98523.13;106037;1276;97887;-71
2022/08/20 08:42:03;;;;;;;16.80;5.70;;;;;;;41.54;45.49;98524.49;106020;1278;97871;-70
2022/08/20 08:44:41;;;;;;;13.10;4.80;;;;;;;41.58;44.69;98521.07;105960;1277;111378;-71
2022/08/20 08:47:20;;;;;;;16.40;5.10;;;;;;;41.47;44.48;98523.63;105992;1276;98372;-72
2022/08/20 08:49:48;;;;;;;16.90;5.10;;;;;;;41.52;43.65;98527.59;105929;1278;109171;-72
2022/08/20 08:52:31;;;;;;;14.50;4.80;;;;;;;41.65;43.27;98526.02;105971;1277;95342;-72
2022/08/20 08:55:06;;;;;;;16.10;5.00;;;;;;;41.71;42.59;98533.52;105974;1276;96514;-71
2022/08/20 08:57:34;;;;;;;13.40;5.10;;;;;;;41.86;42.12;98526.34;106057;1276;111465;-73
2022/08/20 09:00:13;;;;;;;12.40;5.00;;;;;;;41.94;41.73;98525.05;105984;1276;98370;-73
2022/08/20 09:02:58;;;;;;;17.20;5.50;;;;;;;42.06;41.13;98520.73;105846;1278;108175;-74
2022/08/20 09:05:52;;;;;;;15.30;4.70;;;;;;;42.09;40.70;98521.58;105870;1278;97898;-73
2022/08/20 09:08:35;;;;;;;16.70;4.70;;;;;;;41.97;40.06;98520.16;105904;1277;97997;-74
2022/08/20 09:11:07;;;;;;;13.00;4.70;;;;;;;41.86;39.65;98518.29;105802;1277;111405;-74
2022/08/20 09:13:36;;;;;;;20.50;4.80;;;;;;;41.95;39.31;98518.58;105903;1277;95793;-74
2022/08/20 09:16:04;;;;;;;12.40;4.90;;;;;;;42.01;39.04;98515.11;105890;1276;107793;-73
2022/08/20 09:18:31;;;;;;;16.60;4.90;;;;;;;41.97;38.72;98510.84;105870;1278;97935;-73
2022/08/20 09:20:59;;;;;;;16.40;5.00;;;;;;;41.93;38.26;98512.98;105929;1278;96657;-75
2022/08/20 09:23:27;;;;;;;15.20;4.70;;;;;;;41.86;37.95;98511.42;105920;1276;111132;-74
2022/08/20 09:25:56;;;;;;;14.00;4.80;;;;;;;41.81;37.44;98514.16;105897;1278;98836;-74
2022/08/20 09:28:24;;;;;;;18.00;4.90;;;;;;;41.76;37.20;98516.42;105902;1276;107754;-74
2022/08/20 09:31:04;;;;;;;8.60;4.20;;;;;;;41.61;36.81;98515.05;105837;1277;97977;-74
2022/08/20 09:33:34;;;;;;;17.40;4.60;;;;;;;41.51;36.72;98513.67;105819;1278;98083;-72
2022/08/20 09:36:02;;;;;;;18.20;4.90;;;;;;;41.59;36.45;98511.31;105872;1276;111413;-69
2022/08/20 09:38:51;;;;;;;12.20;4.50;;;;;;;41.58;36.14;98512.95;105923;1278;98403;-69
2022/08/20 09:41:21;;;;;;;13.70;4.10;;;;;;;41.58;35.94;98509.21;105974;1278;108350;-69
2022/08/20 09:43:50;;;;;;;14.50;4.60;;;;;;;41.45;35.41;98515.77;105872;1278;97765;-67
2022/08/20 09:46:17;;;;;;;13.40;4.80;;;;;;;41.43;35.26;98508.77;105897;1278;95310;-68
2022/08/20 09:48:45;;;;;;;15.10;4.60;;;;;;;41.47;34.96;98508.65;105875;1277;112046;-67
2022/08/20 09:51:15;;;;;;;13.00;4.90;;;;;;;41.46;34.83;98505.96;106011;1278;95711;-68
2022/08/20 09:53:45;;;;;;;17.70;4.50;;;;;;;41.37;34.53;98506.77;105828;1278;107280;-68
2022/08/20 09:56:13;;;;;;;13.00;4.60;;;;;;;41.32;34.41;98509.90;105783;1278;98700;-69
2022/08/20 09:58:49;;;;;;;14.50;4.50;;;;;;;41.10;34.14;98506.98;106023;1278;97876;-67
2022/08/20 10:01:21;;;;;;;14.30;4.80;;;;;;;40.65;33.99;98504.13;105897;1277;111482;-66
2022/08/20 10:03:50;;;;;;;17.80;4.90;;;;;;;40.16;33.86;98499.86;105923;1277;98353;-67
2022/08/20 10:06:20;;;;;;;18.30;5.30;;;;;;;39.40;33.21;98498.79;105906;1278;107646;-69
2022/08/20 10:08:50;;;;;;;13.30;5.00;;;;;;;38.67;33.29;98501.98;105961;1277;97923;-69
2022/08/20 10:11:18;;;;;;;15.50;5.00;;;;;;;38.27;33.26;98502.92;105985;1278;97861;-70
2022/08/20 10:13:47;;;;;;;16.60;5.30;;;;;;;37.84;33.07;98500.05;105978;1276;112633;-69
2022/08/20 10:16:15;;;;;;;17.40;5.00;;;;;;;37.45;32.98;98494.35;105846;1277;98394;-71
2022/08/20 10:18:43;;;;;;;12.70;5.40;;;;;;;37.07;32.95;98491.85;105856;1277;107757;-71
2022/08/20 10:21:12;;;;;;;18.60;5.50;;;;;;;36.74;32.98;98486.30;105852;1278;95272;-69
2022/08/20 10:23:41;;;;;;;16.40;5.40;;;;;;;36.35;32.68;98485.85;105995;1276;98088;-71
2022/08/20 10:26:11;;;;;;;13.90;5.10;;;;;;;36.04;32.83;98476.09;105972;1276;112441;-70
2022/08/20 10:28:41;;;;;;;15.20;5.40;;;;;;;35.73;32.80;98472.88;105902;1278;98485;-71
2022/08/20 10:31:11;;;;;;;15.70;5.40;;;;;;;35.37;32.70;98472.04;105943;1278;107722;-70
2022/08/20 10:33:40;;;;;;;17.70;5.20;;;;;;;34.98;32.66;98467.25;106036;1276;97995;-68
2022/08/20 10:36:15;;;;;;;17.00;5.10;;;;;;;34.65;32.80;98464.48;105968;1277;97904;-69
2022/08/20 10:38:44;;;;;;;14.80;4.90;;;;;;;34.32;32.70;98464.68;105829;1279;111226;-70
2022/08/20 10:41:12;;;;;;;12.10;4.80;;;;;;;34.03;32.94;98459.12;105859;1278;95765;-72
2022/08/20 10:43:40;;;;;;;15.40;5.30;;;;;;;33.80;33.18;98465.29;105931;1277;107784;-70
2022/08/20 10:46:11;;;;;;;15.70;4.90;;;;;;;33.62;33.21;98464.83;105872;1278;96211;-70
2022/08/20 10:48:41;;;;;;;15.80;4.80;;;;;;;33.45;32.92;98466.89;105810;1277;97868;-69
2022/08/20 10:51:09;;;;;;;17.70;5.60;;;;;;;33.27;33.05;98465.73;105853;1277;111853;-69
2022/08/20 10:53:39;;;;;;;15.20;5.30;;;;;;;33.15;33.15;98467.16;105805;1277;98488;-67
2022/08/20 10:56:08;;;;;;;15.90;4.60;;;;;;;33.01;33.40;98462.73;105796;1277;108863;-70
2022/08/20 10:58:42;;;;;;;16.70;6.10;;;;;;;32.82;33.39;98457.25;105873;1276;97888;-70
2022/08/20 11:01:11;;;;;;;24.60;7.30;;;;;;;32.58;33.55;98456.27;105861;1276;97951;-71
2022/08/20 11:03:58;;;;;;;20.50;5.90;;;;;;;32.41;33.82;98454.79;105966;1276;111159;-70
2022/08/20 11:06:26;;;;;;;19.00;5.70;;;;;;;32.26;33.85;98456.15;105905;1276;95940;-72
2022/08/20 11:08:54;;;;;;;17.50;6.00;;;;;;;32.09;33.80;98462.23;105897;1278;107409;-70
2022/08/20 11:11:23;;;;;;;16.50;5.20;;;;;;;31.94;33.88;98454.58;105929;1276;97824;-71
2022/08/20 11:13:51;;;;;;;16.20;5.10;;;;;;;31.79;34.15;98448.17;105946;1276;97976;-72
2022/08/20 11:16:19;;;;;;;19.70;5.50;;;;;;;31.64;33.92;98451.36;105984;1276;111311;-72
2022/08/20 11:18:49;;;;;;;18.90;5.80;;;;;;;31.51;34.45;98445.08;106068;1276;98254;-72
2022/08/20 11:21:17;;;;;;;15.70;5.80;;;;;;;31.42;34.42;98441.16;106039;1276;107639;-71
2022/08/20 11:23:44;;;;;;;21.70;6.40;;;;;;;31.33;34.63;98439.50;105980;1276;97982;-72
2022/08/20 11:26:21;;;;;;;19.20;5.90;;;;;;;31.23;34.73;98439.32;105934;1274;98002;-71
2022/08/20 11:28:50;;;;;;;17.90;6.20;;;;;;;31.16;34.92;98435.35;105991;1276;111414;-71
2022/08/20 11:31:17;;;;;;;17.10;5.10;;;;;;;31.10;35.08;98432.48;105867;1276;95720;-70
2022/08/20 11:33:45;;;;;;;18.80;5.80;;;;;;;31.06;35.10;98432.51;105690;1276;107785;-74
2022/08/20 11:36:13;;;;;;;15.00;5.20;;;;;;;31.02;34.99;98428.86;105899;1277;97869;-75